createdAt,value
2018-04-29T00:01:58.118Z,90.49
2018-04-29T00:04:26.470Z,90.13
2018-04-29T00:06:54.739Z,91.64
2018-04-29T00:09:23.740Z,91.33
2018-04-29T00:11:52.766Z,93.49
2018-04-29T00:14:21.765Z,95.02
2018-04-29T00:16:50.784Z,95.42
2018-04-29T00:19:19.019Z,93.99
2018-04-29T00:21:47.288Z,94.81
2018-04-29T00:24:17.027Z,93.29
2018-04-29T00:26:45.272Z,93.67
2018-04-29T00:29:14.272Z,95.30
2018-04-29T00:31:43.295Z,95.18
2018-04-29T00:34:11.559Z,96.63
2018-04-29T00:36:40.573Z,96.72
2018-04-29T00:39:08.816Z,97.41
2018-04-29T00:41:37.131Z,96.37
2018-04-29T00:44:05.374Z,96.88
2018-04-29T00:46:33.680Z,96.40
2018-04-29T00:49:02.033Z,95.49
2018-04-29T00:51:48.163Z,96.80
2018-04-29T00:54:17.167Z,96.81
2018-04-29T00:56:45.444Z,96.08
2018-04-29T00:59:13.686Z,96.17
2018-04-29T01:01:42.714Z,95.48
2018-04-29T01:04:11.743Z,95.93
2018-04-29T01:06:40.015Z,95.61
2018-04-29T01:09:08.414Z,95.53
2018-04-29T01:11:36.666Z,94.60
2018-04-29T01:14:04.979Z,96.10
2018-04-29T01:16:34.003Z,96.11
2018-04-29T01:19:02.275Z,97.79
2018-04-29T01:21:31.295Z,96.96
2018-04-29T01:23:59.574Z,97.29
2018-04-29T01:26:28.671Z,96.85
2018-04-29T01:28:57.686Z,96.02
2018-04-29T01:31:27.516Z,95.37
2018-04-29T01:33:56.511Z,94.87
2018-04-29T01:36:25.623Z,96.19
2018-04-29T01:38:54.614Z,96.20
2018-04-29T01:41:22.884Z,97.79
2018-04-29T01:43:51.880Z,97.88
2018-04-29T01:46:20.126Z,98.39
2018-04-29T01:48:49.146Z,99.06
2018-04-29T01:51:17.394Z,99.25
2018-04-29T01:53:45.648Z,99.83
2018-04-29T01:56:13.903Z,100.00
2018-04-29T01:58:42.159Z,100.00
2018-04-29T02:01:10.484Z,100.00
2018-04-29T02:03:38.775Z,100.00
2018-04-29T02:06:07.010Z,100.00
2018-04-29T02:08:35.269Z,100.00
2018-04-29T02:11:03.519Z,100.00
2018-04-29T02:13:32.560Z,100.00
2018-04-29T02:16:00.809Z,100.00
2018-04-29T02:18:29.072Z,100.00
2018-04-29T02:20:57.311Z,100.00
2018-04-29T02:23:25.567Z,100.00
2018-04-29T02:25:54.596Z,100.00
2018-04-29T02:28:23.679Z,100.00
2018-04-29T02:30:52.019Z,100.00
2018-04-29T02:33:20.376Z,100.00
2018-04-29T02:35:49.495Z,99.62
2018-04-29T02:38:18.595Z,98.78
2018-04-29T02:40:47.660Z,97.73
2018-04-29T02:43:15.907Z,95.87
2018-04-29T02:45:44.155Z,96.75
2018-04-29T02:48:12.406Z,96.74
2018-04-29T02:50:41.488Z,97.50
2018-04-29T02:53:10.522Z,97.43
2018-04-29T02:55:38.767Z,98.39
2018-04-29T02:58:07.892Z,98.04
2018-04-29T03:00:36.887Z,97.37
2018-04-29T03:03:06.049Z,97.00
2018-04-29T03:05:34.282Z,96.64
2018-04-29T03:08:03.303Z,96.35
2018-04-29T03:10:32.296Z,96.71
2018-04-29T03:13:01.303Z,97.23
2018-04-29T03:15:30.311Z,98.25
2018-04-29T03:17:59.326Z,98.78
2018-04-29T03:20:28.335Z,98.92
2018-04-29T03:22:57.356Z,99.34
2018-04-29T03:25:25.606Z,99.38
2018-04-29T03:27:53.856Z,99.36
2018-04-29T03:30:22.087Z,98.15
2018-04-29T03:32:51.111Z,97.02
2018-04-29T03:35:20.213Z,96.39
2018-04-29T03:37:49.431Z,95.52
2018-04-29T03:40:18.440Z,95.43
2018-04-29T03:42:47.539Z,92.96
2018-04-29T03:45:16.675Z,93.33
2018-04-29T03:47:44.943Z,92.29
2018-04-29T03:50:14.687Z,92.08
2018-04-29T03:52:42.975Z,91.52
2018-04-29T03:55:11.242Z,91.30
2018-04-29T03:57:58.011Z,91.25
2018-04-29T04:00:55.814Z,91.49
2018-04-29T04:03:41.905Z,90.56
2018-04-29T04:06:10.168Z,91.65
2018-04-29T04:08:38.427Z,91.32
2018-04-29T04:11:07.433Z,91.59
2018-04-29T04:13:36.457Z,92.29
2018-04-29T04:16:05.450Z,92.74
2018-04-29T04:18:34.475Z,91.17
2018-04-29T04:21:02.707Z,91.71
2018-04-29T04:23:31.722Z,91.50
2018-04-29T04:25:59.967Z,93.11
2018-04-29T04:28:28.227Z,93.17
2018-04-29T04:30:57.984Z,92.88
2018-04-29T04:33:26.254Z,90.84
2018-04-29T04:35:55.243Z,91.01
2018-04-29T04:38:24.243Z,92.35
2018-04-29T04:40:52.494Z,92.71
2018-04-29T04:43:20.753Z,90.89
2018-04-29T04:45:49.008Z,92.19
2018-04-29T04:48:17.232Z,93.50
2018-04-29T04:50:45.512Z,93.51
2018-04-29T04:53:13.727Z,92.37
2018-04-29T04:55:41.970Z,91.08
2018-04-29T04:58:10.996Z,91.24
2018-04-29T05:00:39.985Z,91.75
2018-04-29T05:03:08.219Z,92.75
2018-04-29T05:05:36.472Z,92.51
2018-04-29T05:08:05.469Z,93.50
2018-04-29T05:10:35.241Z,93.83
2018-04-29T05:13:03.464Z,94.10
2018-04-29T05:15:31.710Z,94.19
2018-04-29T05:17:59.968Z,94.84
2018-04-29T05:20:28.991Z,96.06
2018-04-29T05:22:57.243Z,96.50
2018-04-29T05:25:25.495Z,96.29
2018-04-29T05:27:53.723Z,94.60
2018-04-29T05:30:22.016Z,92.62
2018-04-29T05:32:50.253Z,89.68
2018-04-29T05:35:18.585Z,87.21
2018-04-29T05:37:46.753Z,85.14
2018-04-29T05:40:15.009Z,84.25
2018-04-29T05:42:43.256Z,82.68
2018-04-29T05:45:11.585Z,80.70
2018-04-29T05:47:39.811Z,80.46
2018-04-29T05:50:08.095Z,79.61
2018-04-29T05:52:36.336Z,79.60
2018-04-29T05:55:05.434Z,77.87
2018-04-29T05:57:34.438Z,76.35
2018-04-29T06:00:03.484Z,77.22
2018-04-29T06:02:31.720Z,76.81
2018-04-29T06:05:00.000Z,74.47
2018-04-29T06:07:28.235Z,71.95
2018-04-29T06:09:56.478Z,70.62
2018-04-29T06:12:24.766Z,66.60
2018-04-29T06:14:53.009Z,65.47
2018-04-29T06:17:21.251Z,65.40
2018-04-29T06:19:49.515Z,66.48
2018-04-29T06:22:17.753Z,64.86
2018-04-29T06:24:46.756Z,66.21
2018-04-29T06:27:16.860Z,63.61
2018-04-29T06:29:46.707Z,63.11
2018-04-29T06:32:15.730Z,63.58
2018-04-29T06:34:44.012Z,64.50
2018-04-29T06:37:14.136Z,65.60
2018-04-29T06:39:43.143Z,62.28
2018-04-29T06:42:11.410Z,63.39
2018-04-29T06:44:41.386Z,60.80
2018-04-29T06:47:09.631Z,62.06
2018-04-29T06:49:37.885Z,61.21
2018-04-29T06:52:06.336Z,62.96
2018-04-29T06:54:35.339Z,62.77
2018-04-29T06:57:04.358Z,62.00
2018-04-29T06:59:32.654Z,63.39
2018-04-29T07:02:00.899Z,62.49
2018-04-29T07:04:30.662Z,60.57
2018-04-29T07:06:58.927Z,58.37
2018-04-29T07:09:28.079Z,59.92
2018-04-29T07:11:56.349Z,60.34
2018-04-29T07:14:25.355Z,59.99
2018-04-29T07:16:54.363Z,58.05
2018-04-29T07:19:24.098Z,59.64
2018-04-29T07:21:52.373Z,59.06
2018-04-29T07:24:21.472Z,58.37
2018-04-29T07:26:49.773Z,59.36
2018-04-29T07:29:18.017Z,55.52
2018-04-29T07:31:47.318Z,56.23
2018-04-29T07:34:15.654Z,59.67
2018-04-29T07:36:44.780Z,56.73
2018-04-29T07:39:13.160Z,54.14
2018-04-29T07:41:41.478Z,55.18
2018-04-29T07:44:09.709Z,52.75
2018-04-29T07:46:37.978Z,53.15
2018-04-29T07:49:06.213Z,53.82
2018-04-29T07:51:35.250Z,52.97
2018-04-29T07:54:03.487Z,52.30
2018-04-29T07:56:33.336Z,52.56
2018-04-29T07:59:02.473Z,50.95
2018-04-29T08:01:30.908Z,51.71
2018-04-29T08:03:59.317Z,51.28
2018-04-29T08:06:28.334Z,51.26
2018-04-29T08:08:57.727Z,51.94
2018-04-29T08:11:26.385Z,51.01
2018-04-29T08:13:54.606Z,50.56
2018-04-29T08:16:24.364Z,50.89
2018-04-29T08:18:52.751Z,50.48
2018-04-29T08:21:21.764Z,49.38
2018-04-29T08:23:50.761Z,48.54
2018-04-29T08:26:19.759Z,48.25
2018-04-29T08:28:48.879Z,47.26
2018-04-29T08:31:18.638Z,47.19
2018-04-29T08:33:48.383Z,48.56
2018-04-29T08:36:16.697Z,47.22
2018-04-29T08:38:44.987Z,48.22
2018-04-29T08:41:13.252Z,50.64
2018-04-29T08:43:41.493Z,47.74
2018-04-29T08:46:09.879Z,48.47
2018-04-29T08:48:39.007Z,49.52
2018-04-29T08:51:07.227Z,46.91
2018-04-29T08:53:35.478Z,45.53
2018-04-29T08:56:03.791Z,45.87
2018-04-29T08:58:32.747Z,45.33
2018-04-29T09:01:01.756Z,45.56
2018-04-29T09:03:30.788Z,45.37
2018-04-29T09:05:59.019Z,44.05
2018-04-29T09:08:27.399Z,44.69
2018-04-29T09:10:55.689Z,45.81
2018-04-29T09:13:23.947Z,46.00
2018-04-29T09:15:52.192Z,44.28
2018-04-29T09:18:20.469Z,45.24
2018-04-29T09:20:48.718Z,44.60
2018-04-29T09:23:17.033Z,43.97
2018-04-29T09:25:46.693Z,42.84
2018-04-29T09:28:14.984Z,44.09
2018-04-29T09:30:43.232Z,42.44
2018-04-29T09:33:11.532Z,43.18
2018-04-29T09:35:39.824Z,42.30
2018-04-29T09:38:08.102Z,41.69
2018-04-29T09:40:36.378Z,42.08
2018-04-29T09:43:04.752Z,42.86
2018-04-29T09:45:33.024Z,42.82
2018-04-29T09:48:02.084Z,43.44
2018-04-29T09:50:30.351Z,41.93
2018-04-29T09:52:58.711Z,40.40
2018-04-29T09:55:27.748Z,40.55
2018-04-29T09:57:56.005Z,40.32
2018-04-29T10:00:26.982Z,41.75
2018-04-29T10:03:00.715Z,39.71
2018-04-29T10:05:29.009Z,38.91
2018-04-29T10:07:57.286Z,39.93
2018-04-29T10:10:25.587Z,40.08
2018-04-29T10:12:53.842Z,40.27
2018-04-29T10:15:22.154Z,39.77
2018-04-29T10:17:51.211Z,40.71
2018-04-29T10:20:19.532Z,38.59
2018-04-29T10:22:47.788Z,39.27
2018-04-29T10:25:16.057Z,38.92
2018-04-29T10:27:44.360Z,37.77
2018-04-29T10:30:12.652Z,38.31
2018-04-29T10:32:41.717Z,37.91
2018-04-29T10:35:10.088Z,38.86
2018-04-29T10:37:38.363Z,37.95
2018-04-29T10:40:07.397Z,37.92
2018-04-29T10:42:35.729Z,37.96
2018-04-29T10:45:04.003Z,37.12
2018-04-29T10:47:32.312Z,36.72
2018-04-29T10:50:00.579Z,36.78
2018-04-29T10:52:28.944Z,36.33
2018-04-29T10:54:57.145Z,36.46
2018-04-29T10:57:25.484Z,36.65
2018-04-29T10:59:54.427Z,36.35
2018-04-29T11:02:22.728Z,36.48
2018-04-29T11:04:51.049Z,36.32
2018-04-29T11:07:19.404Z,37.96
2018-04-29T11:09:47.684Z,36.45
2018-04-29T11:12:15.946Z,37.00
2018-04-29T11:14:44.267Z,34.62
2018-04-29T11:17:12.576Z,36.00
2018-04-29T11:19:40.860Z,36.41
2018-04-29T11:22:09.223Z,35.88
2018-04-29T11:24:37.431Z,34.22
2018-04-29T11:27:05.698Z,35.16
2018-04-29T11:29:33.986Z,35.37
2018-04-29T11:32:02.310Z,34.40
2018-04-29T11:34:30.591Z,34.76
2018-04-29T11:36:58.848Z,33.88
2018-04-29T11:39:27.147Z,35.24
2018-04-29T11:41:55.393Z,34.97
2018-04-29T11:44:23.677Z,34.98
2018-04-29T11:46:51.930Z,34.47
2018-04-29T11:49:20.231Z,34.52
2018-04-29T11:51:48.482Z,34.26
2018-04-29T11:54:17.487Z,34.43
2018-04-29T11:56:46.527Z,34.32
2018-04-29T11:59:14.811Z,35.25
2018-04-29T12:01:43.131Z,33.76
2018-04-29T12:04:11.435Z,34.03
2018-04-29T12:06:39.699Z,33.10
2018-04-29T12:09:07.973Z,32.57
2018-04-29T12:11:36.228Z,33.65
2018-04-29T12:14:05.255Z,32.37
2018-04-29T12:16:33.583Z,32.07
2018-04-29T12:19:02.580Z,33.84
2018-04-29T12:21:30.836Z,32.27
2018-04-29T12:23:59.087Z,32.04
2018-04-29T12:26:27.359Z,33.93
2018-04-29T12:28:55.634Z,32.04
2018-04-29T12:31:23.848Z,30.99
2018-04-29T12:33:52.137Z,32.02
2018-04-29T12:36:20.411Z,30.42
2018-04-29T12:38:48.652Z,31.12
2018-04-29T12:41:16.998Z,31.92
2018-04-29T12:43:45.287Z,30.30
2018-04-29T12:46:13.567Z,30.17
2018-04-29T12:48:41.822Z,30.46
2018-04-29T12:51:10.121Z,31.28
2018-04-29T12:53:38.358Z,30.44
2018-04-29T12:56:07.785Z,30.25
2018-04-29T12:58:36.026Z,30.18
2018-04-29T13:01:04.299Z,30.11
2018-04-29T13:03:32.582Z,29.65
2018-04-29T13:06:00.851Z,30.43
2018-04-29T13:08:29.103Z,29.47
2018-04-29T13:10:57.351Z,29.75
2018-04-29T13:13:25.593Z,30.18
2018-04-29T13:15:53.848Z,29.09
2018-04-29T13:18:22.846Z,28.05
2018-04-29T13:20:51.107Z,28.38
2018-04-29T13:23:19.374Z,28.74
2018-04-29T13:25:48.432Z,28.09
2018-04-29T13:28:16.686Z,27.86
2018-04-29T13:30:45.727Z,28.34
2018-04-29T13:33:13.989Z,28.17
2018-04-29T13:35:43.130Z,28.33
2018-04-29T13:38:12.086Z,27.98
2018-04-29T13:40:41.126Z,27.16
2018-04-29T13:43:09.363Z,28.30
2018-04-29T13:45:39.008Z,27.75
2018-04-29T13:48:07.285Z,28.13
2018-04-29T13:50:36.323Z,27.52
2018-04-29T13:53:04.562Z,27.54
2018-04-29T13:55:32.863Z,27.24
2018-04-29T13:58:01.190Z,26.25
2018-04-29T14:00:29.444Z,25.93
2018-04-29T14:02:57.707Z,26.35
2018-04-29T14:05:25.980Z,27.12
2018-04-29T14:07:54.264Z,26.49
2018-04-29T14:10:23.434Z,26.72
2018-04-29T14:12:51.647Z,26.68
2018-04-29T14:15:19.915Z,26.98
2018-04-29T14:17:48.912Z,26.75
2018-04-29T14:20:17.935Z,26.41
2018-04-29T14:22:46.179Z,26.10
2018-04-29T14:25:14.455Z,25.26
2018-04-29T14:27:43.587Z,25.59
2018-04-29T14:30:12.651Z,26.42
2018-04-29T14:32:40.915Z,27.11
2018-04-29T14:35:09.209Z,25.96
2018-04-29T14:37:38.296Z,26.41
2018-04-29T14:40:06.552Z,26.64
2018-04-29T14:42:36.086Z,26.18
2018-04-29T14:45:04.683Z,25.94
2018-04-29T14:47:35.445Z,26.37
2018-04-29T14:50:04.974Z,26.59
2018-04-29T14:52:34.091Z,26.83
2018-04-29T14:55:02.624Z,27.17
2018-04-29T14:57:31.022Z,26.18
2018-04-29T14:59:59.480Z,26.67
2018-04-29T15:02:28.001Z,26.39
2018-04-29T15:04:56.563Z,26.18
2018-04-29T15:07:24.869Z,26.71
2018-04-29T15:09:55.384Z,26.86
2018-04-29T15:12:24.191Z,27.28
2018-04-29T15:14:54.109Z,27.97
2018-04-29T15:17:23.504Z,27.85
2018-04-29T15:19:52.005Z,28.39
2018-04-29T15:22:21.147Z,28.89
2018-04-29T15:24:50.394Z,28.85
2018-04-29T15:27:18.879Z,28.32
2018-04-29T15:29:47.197Z,27.62
2018-04-29T15:32:15.594Z,27.89
2018-04-29T15:34:44.066Z,27.40
2018-04-29T15:37:13.621Z,28.68
2018-04-29T15:39:43.078Z,27.78
2018-04-29T15:42:11.622Z,28.14
2018-04-29T15:44:40.929Z,28.21
2018-04-29T15:47:09.450Z,29.14
2018-04-29T15:49:37.910Z,29.18
2018-04-29T15:52:06.388Z,29.06
2018-04-29T15:54:34.957Z,30.00
2018-04-29T15:57:03.354Z,30.17
2018-04-29T15:59:31.898Z,30.58
2018-04-29T16:02:00.427Z,30.49
2018-04-29T16:04:29.834Z,29.81
2018-04-29T16:06:59.062Z,29.31
2018-04-29T16:09:29.451Z,29.34
2018-04-29T16:11:57.965Z,30.69
2018-04-29T16:14:30.316Z,29.98
2018-04-29T16:16:58.911Z,29.86
2018-04-29T16:19:27.213Z,30.00
2018-04-29T16:21:55.804Z,29.84
2018-04-29T16:24:24.416Z,30.30
2018-04-29T16:26:53.062Z,30.09
2018-04-29T16:29:21.611Z,29.97
2018-04-29T16:31:50.085Z,30.67
2018-04-29T16:34:18.355Z,31.26
2018-04-29T16:36:47.452Z,31.14
2018-04-29T16:39:16.719Z,31.15
2018-04-29T16:41:46.156Z,31.00
2018-04-29T16:44:15.299Z,31.78
2018-04-29T16:46:44.522Z,31.68
2018-04-29T16:49:12.937Z,30.64
2018-04-29T16:51:42.168Z,30.58
2018-04-29T16:54:11.361Z,31.10
2018-04-29T16:56:40.890Z,31.10
2018-04-29T16:59:09.514Z,31.50
2018-04-29T17:01:38.823Z,31.03
2018-04-29T17:04:07.668Z,31.45
2018-04-29T17:06:38.010Z,30.61
2018-04-29T17:09:06.507Z,30.06
2018-04-29T17:11:35.012Z,29.10
2018-04-29T17:14:03.737Z,29.68
2018-04-29T17:16:33.161Z,28.40
2018-04-29T17:19:01.688Z,29.80
2018-04-29T17:21:30.949Z,29.20
2018-04-29T17:23:59.505Z,28.56
2018-04-29T17:26:28.005Z,29.26
2018-04-29T17:28:58.480Z,30.27
2018-04-29T17:31:27.980Z,30.87
2018-04-29T17:33:56.714Z,30.76
2018-04-29T17:36:26.142Z,30.51
2018-04-29T17:38:55.155Z,30.94
2018-04-29T17:41:24.359Z,30.42
2018-04-29T17:43:52.893Z,30.51
2018-04-29T17:46:21.304Z,31.20
2018-04-29T17:48:49.594Z,31.55
2018-04-29T17:51:17.843Z,31.70
2018-04-29T17:53:46.884Z,31.66
2018-04-29T17:56:15.264Z,32.01
2018-04-29T17:58:43.563Z,31.81
2018-04-29T18:01:11.825Z,32.39
2018-04-29T18:03:40.856Z,32.20
2018-04-29T18:06:09.127Z,32.63
2018-04-29T18:08:38.151Z,32.76
2018-04-29T18:11:06.417Z,32.52
2018-04-29T18:13:35.453Z,32.56
2018-04-29T18:16:03.751Z,33.04
2018-04-29T18:18:32.082Z,33.25
2018-04-29T18:21:01.857Z,33.42
2018-04-29T18:23:30.152Z,33.71
2018-04-29T18:25:58.397Z,33.68
2018-04-29T18:28:26.670Z,33.47
2018-04-29T18:30:54.919Z,34.19
2018-04-29T18:33:23.216Z,34.21
2018-04-29T18:35:51.460Z,34.44
2018-04-29T18:38:21.095Z,34.62
2018-04-29T18:40:50.123Z,34.84
2018-04-29T18:43:18.407Z,34.96
2018-04-29T18:45:46.716Z,34.87
2018-04-29T18:48:15.060Z,35.29
2018-04-29T18:50:43.545Z,35.66
2018-04-29T18:53:11.603Z,35.63
2018-04-29T18:55:39.904Z,35.80
2018-04-29T18:58:08.182Z,35.62
2018-04-29T19:00:37.228Z,36.36
2018-04-29T19:03:06.254Z,36.35
2018-04-29T19:08:39.101Z,36.28
2018-04-29T19:11:08.149Z,36.83
2018-04-29T19:13:36.427Z,36.78
2018-04-29T19:16:04.736Z,36.85
2018-04-29T19:18:33.012Z,37.29
2018-04-29T19:21:01.252Z,37.52
2018-04-29T19:23:29.562Z,37.41
2018-04-29T19:25:57.807Z,38.11
2018-04-29T19:28:27.260Z,38.12
2018-04-29T19:30:56.225Z,37.32
2018-04-29T19:33:25.238Z,37.92
2018-04-29T19:35:54.281Z,38.14
2018-04-29T19:38:22.549Z,37.71
2018-04-29T19:40:51.558Z,38.22
2018-04-29T19:43:19.863Z,37.71
2018-04-29T19:45:48.165Z,37.60
2018-04-29T19:48:17.163Z,37.59
2018-04-29T19:50:45.454Z,37.52
2018-04-29T19:53:13.698Z,37.91
2018-04-29T19:55:42.779Z,38.83
2018-04-29T19:58:11.051Z,38.67
2018-04-29T20:00:39.335Z,39.47
2018-04-29T20:03:07.672Z,39.47
2018-04-29T20:05:35.955Z,39.97
2018-04-29T20:08:04.187Z,39.71
2018-04-29T20:10:32.463Z,40.14
2018-04-29T20:13:00.710Z,40.65
2018-04-29T20:15:28.993Z,40.86
2018-04-29T20:17:57.245Z,40.62
2018-04-29T20:20:25.493Z,41.01
2018-04-29T20:22:53.768Z,40.92
2018-04-29T20:25:22.031Z,40.75
2018-04-29T20:27:50.272Z,40.93
2018-04-29T20:30:18.539Z,41.17
2018-04-29T20:32:48.614Z,41.02
2018-04-29T20:35:16.895Z,41.14
2018-04-29T20:37:45.158Z,41.43
2018-04-29T20:40:14.294Z,41.82
2018-04-29T20:42:44.426Z,41.22
2018-04-29T20:45:13.438Z,41.55
2018-04-29T20:47:41.675Z,41.81
2018-04-29T20:50:10.017Z,42.14
2018-04-29T20:52:38.288Z,42.00
2018-04-29T20:55:07.314Z,41.68
2018-04-29T20:57:35.580Z,42.42
2018-04-29T21:00:04.691Z,42.40
2018-04-29T21:02:33.728Z,42.41
2018-04-29T21:05:02.003Z,42.88
2018-04-29T21:07:30.251Z,43.40
2018-04-29T21:09:58.516Z,43.55
2018-04-29T21:12:26.772Z,44.30
2018-04-29T21:14:55.024Z,44.19
2018-04-29T21:17:23.339Z,45.20
2018-04-29T21:19:51.543Z,44.86
2018-04-29T21:22:19.785Z,45.42
2018-04-29T21:24:48.021Z,46.23
2018-04-29T21:27:16.513Z,47.20
2018-04-29T21:29:44.794Z,47.62
2018-04-29T21:32:13.039Z,48.58
2018-04-29T21:34:42.833Z,48.66
2018-04-29T21:37:11.078Z,48.27
2018-04-29T21:39:40.103Z,48.40
2018-04-29T21:42:08.364Z,47.89
2018-04-29T21:44:37.427Z,48.05
2018-04-29T21:47:05.688Z,47.67
2018-04-29T21:49:33.966Z,47.57
2018-04-29T21:52:02.242Z,47.50
2018-04-29T21:54:31.225Z,46.47
2018-04-29T21:57:00.659Z,46.26
2018-04-29T21:59:28.878Z,46.63
2018-04-29T22:01:57.144Z,46.66
2018-04-29T22:04:26.150Z,46.46
2018-04-29T22:06:55.260Z,46.36
2018-04-29T22:09:24.267Z,45.98
2018-04-29T22:11:53.287Z,46.28
2018-04-29T22:14:21.521Z,46.62
2018-04-29T22:16:49.849Z,47.17
2018-04-29T22:19:18.855Z,47.86
2018-04-29T22:21:47.170Z,48.42
2018-04-29T22:24:15.408Z,48.66
2018-04-29T22:26:43.678Z,48.06
2018-04-29T22:29:12.034Z,48.46
2018-04-29T22:31:40.386Z,49.09
2018-04-29T22:34:09.320Z,48.38
2018-04-29T22:36:37.596Z,48.09
2018-04-29T22:39:06.610Z,47.52
2018-04-29T22:41:35.679Z,48.58
2018-04-29T22:44:03.919Z,50.13
2018-04-29T22:46:32.183Z,51.15
2018-04-29T22:49:01.300Z,53.10
2018-04-29T22:51:30.419Z,51.25
2018-04-29T22:53:59.414Z,50.18
2018-04-29T22:56:28.810Z,50.01
2018-04-29T22:58:57.072Z,49.75
2018-04-29T23:01:25.324Z,49.73
2018-04-29T23:03:53.709Z,48.84
2018-04-29T23:06:22.804Z,48.31
2018-04-29T23:08:51.822Z,47.92
2018-04-29T23:11:20.887Z,48.59
2018-04-29T23:13:49.123Z,47.31
2018-04-29T23:16:17.395Z,46.52
2018-04-29T23:18:46.396Z,45.88
2018-04-29T23:21:14.647Z,47.33
2018-04-29T23:23:42.994Z,54.12
2018-04-29T23:26:12.045Z,57.93
2018-04-29T23:28:40.331Z,60.62
2018-04-29T23:31:08.654Z,62.71
2018-04-29T23:33:36.895Z,62.77
2018-04-29T23:36:05.157Z,63.07
2018-04-29T23:38:34.155Z,63.81
2018-04-29T23:41:03.165Z,63.97
2018-04-29T23:43:32.200Z,63.38
2018-04-29T23:46:00.454Z,63.25
2018-04-29T23:48:29.492Z,63.75
2018-04-29T23:50:57.747Z,64.48
2018-04-29T23:53:26.776Z,64.17
2018-04-29T23:55:55.022Z,64.26
2018-04-29T23:58:23.334Z,64.37
